createdAt,value
2022-12-27T00:00:33.974Z,33.70
2022-12-27T00:05:36.241Z,33.17
2022-12-27T00:10:39.158Z,33.63
2022-12-27T00:15:41.346Z,37.05
2022-12-27T00:20:43.480Z,30.67
2022-12-27T00:25:45.607Z,33.85
2022-12-27T00:30:55.511Z,33.38
2022-12-27T00:36:01.244Z,24.60
2022-12-27T00:41:04.313Z,27.92
2022-12-27T00:46:06.961Z,26.08
2022-12-27T00:51:15.145Z,30.05
2022-12-27T00:56:20.172Z,26.98
2022-12-27T01:01:24.419Z,22.17
2022-12-27T01:06:29.527Z,30.33
2022-12-27T01:11:33.268Z,39.00
2022-12-27T01:16:35.654Z,23.25
2022-12-27T01:21:37.845Z,30.80
2022-12-27T01:26:40.093Z,23.60
2022-12-27T01:31:42.255Z,26.48
2022-12-27T01:36:45.230Z,28.15
2022-12-27T01:42:05.946Z,26.67
2022-12-27T01:52:24.829Z,36.45
2022-12-27T01:57:27.115Z,29.17
2022-12-27T02:02:29.608Z,30.08
2022-12-27T02:07:42.425Z,27.15
2022-12-27T02:12:44.763Z,25.15
2022-12-27T02:17:47.130Z,23.48
2022-12-27T02:23:26.520Z,22.40
2022-12-27T02:28:46.984Z,24.77
2022-12-27T02:33:52.610Z,17.73
2022-12-27T02:38:59.529Z,21.23
2022-12-27T02:44:20.635Z,17.95
2022-12-27T02:49:51.587Z,18.88
2022-12-27T02:55:09.562Z,24.40
2022-12-27T03:00:35.739Z,26.33
2022-12-27T03:06:30.157Z,26.50
2022-12-27T03:12:16.082Z,22.50
2022-12-27T03:17:31.116Z,24.10
2022-12-27T03:22:54.349Z,27.08
2022-12-27T03:28:23.597Z,39.95
2022-12-27T03:33:29.178Z,40.45
2022-12-27T03:38:36.868Z,28.65
2022-12-27T03:43:40.922Z,39.75
2022-12-27T03:49:04.010Z,35.22
2022-12-27T03:54:11.655Z,35.05
2022-12-27T03:59:13.839Z,38.47
2022-12-27T04:04:16.053Z,37.17
2022-12-27T04:09:36.860Z,37.63
2022-12-27T04:20:17.891Z,37.45
2022-12-27T04:30:58.681Z,25.17
2022-12-27T04:36:06.008Z,25.27
2022-12-27T04:41:26.937Z,29.95
2022-12-27T04:46:47.802Z,34.92
2022-12-27T04:52:08.311Z,37.97
2022-12-27T04:57:10.492Z,28.60
2022-12-27T05:02:12.995Z,30.55
2022-12-27T05:07:35.131Z,46.92
2022-12-27T05:12:55.690Z,41.40
2022-12-27T05:17:58.420Z,44.88
2022-12-27T05:23:19.405Z,33.42
2022-12-27T05:28:21.541Z,41.63
2022-12-27T05:33:23.711Z,57.67
2022-12-27T05:38:25.863Z,51.35
2022-12-27T05:43:28.952Z,52.30
2022-12-27T05:48:31.603Z,52.42
2022-12-27T05:53:33.842Z,51.10
2022-12-27T05:58:36.185Z,55.50
2022-12-27T06:03:39.199Z,54.22
2022-12-27T06:08:41.879Z,50.50
2022-12-27T06:13:49.036Z,68.82
2022-12-27T06:18:51.306Z,59.35
2022-12-27T06:23:53.538Z,62.10
2022-12-27T06:28:57.938Z,66.65
2022-12-27T06:34:00.090Z,56.83
2022-12-27T06:39:02.436Z,53.08
2022-12-27T06:44:04.755Z,46.67
2022-12-27T06:49:07.019Z,53.15
2022-12-27T06:54:09.250Z,47.13
2022-12-27T06:59:11.440Z,57.67
2022-12-27T07:04:13.584Z,58.03
2022-12-27T07:09:15.870Z,60.42
2022-12-27T07:14:18.082Z,64.38
2022-12-27T07:19:20.270Z,70.30
2022-12-27T07:24:22.471Z,69.43
2022-12-27T07:29:24.683Z,71.20
2022-12-27T07:34:26.805Z,69.38
2022-12-27T07:39:29.352Z,78.30
2022-12-27T07:44:31.471Z,76.20
2022-12-27T07:49:33.676Z,64.63
2022-12-27T07:54:36.336Z,79.22
2022-12-27T07:59:38.522Z,81.15
2022-12-27T08:04:40.753Z,72.72
2022-12-27T08:09:45.741Z,65.65
2022-12-27T08:14:47.912Z,73.90
2022-12-27T08:19:52.696Z,59.13
2022-12-27T08:24:56.648Z,56.33
2022-12-27T08:29:58.869Z,69.20
2022-12-27T08:37:16.176Z,66.72
2022-12-27T08:42:18.435Z,56.10
2022-12-27T08:47:20.631Z,64.78
2022-12-27T08:52:22.787Z,59.13
2022-12-27T08:57:24.980Z,51.83
2022-12-27T09:02:27.284Z,55.28
2022-12-27T09:07:30.097Z,52.92
2022-12-27T09:12:33.859Z,53.58
2022-12-27T09:17:36.382Z,62.65
2022-12-27T09:22:40.072Z,60.35
2022-12-27T09:27:42.198Z,56.75
2022-12-27T09:32:44.412Z,67.75
2022-12-27T09:37:46.563Z,75.85
2022-12-27T09:43:19.063Z,60.45
2022-12-27T09:48:35.076Z,64.07
2022-12-27T09:53:51.768Z,69.43
2022-12-27T09:58:57.816Z,66.93
2022-12-27T10:04:01.000Z,57.35
2022-12-27T10:09:30.919Z,61.90
2022-12-27T10:14:59.626Z,62.33
2022-12-27T10:20:31.323Z,52.53
2022-12-27T10:25:36.567Z,46.78
2022-12-27T10:30:41.132Z,60.85
2022-12-27T10:35:43.331Z,62.08
2022-12-27T10:40:59.859Z,43.75
2022-12-27T10:46:32.482Z,50.42
2022-12-27T10:51:37.878Z,57.45
2022-12-27T10:56:42.277Z,55.92
2022-12-27T11:01:46.555Z,67.03
2022-12-27T11:07:05.563Z,67.68
2022-12-27T11:12:25.868Z,59.28
2022-12-27T11:17:54.342Z,75.13
2022-12-27T11:23:06.340Z,52.70
2022-12-27T11:28:29.543Z,54.17
2022-12-27T11:33:39.751Z,60.50
2022-12-27T11:38:45.467Z,55.85
2022-12-27T11:44:01.314Z,52.90
2022-12-27T11:49:09.644Z,59.55
2022-12-27T11:54:21.211Z,56.58
2022-12-27T11:59:26.121Z,49.25
2022-12-27T12:04:46.169Z,61.10
2022-12-27T12:10:11.778Z,41.92
2022-12-27T12:15:32.499Z,45.85
2022-12-27T12:21:13.352Z,41.28
2022-12-27T12:26:22.441Z,44.33
2022-12-27T12:31:42.437Z,40.57
2022-12-27T12:37:14.654Z,38.10
2022-12-27T12:42:29.813Z,30.73
2022-12-27T12:47:50.110Z,35.20
2022-12-27T12:58:06.227Z,27.27
2022-12-27T13:04:06.612Z,25.90
2022-12-27T13:09:17.862Z,26.73
2022-12-27T13:14:22.760Z,20.63
2022-12-27T13:19:59.379Z,19.25
2022-12-27T13:25:29.586Z,22.05
2022-12-27T13:30:49.019Z,22.02
2022-12-27T13:36:13.127Z,21.93
2022-12-27T13:41:30.208Z,17.58
2022-12-27T13:46:43.044Z,14.25
2022-12-27T13:51:50.355Z,16.48
2022-12-27T13:57:23.662Z,17.95
2022-12-27T14:02:37.873Z,22.88
2022-12-27T14:07:51.246Z,20.92
2022-12-27T14:12:53.365Z,20.13
2022-12-27T14:18:24.682Z,17.33
2022-12-27T14:23:54.694Z,16.88
2022-12-27T14:29:34.251Z,17.83
2022-12-27T14:34:40.992Z,19.58
2022-12-27T14:39:51.840Z,22.52
2022-12-27T14:45:35.142Z,23.75
2022-12-27T14:51:08.132Z,31.63
2022-12-27T14:56:24.979Z,34.38
2022-12-27T15:01:59.235Z,29.85
2022-12-27T15:07:42.983Z,29.83
2022-12-27T15:13:26.587Z,40.42
2022-12-27T15:18:56.046Z,39.92
2022-12-27T15:24:09.839Z,33.55
2022-12-27T15:29:24.327Z,59.90
2022-12-27T15:34:26.562Z,47.95
2022-12-27T15:39:35.942Z,60.25
2022-12-27T15:45:02.397Z,60.65
2022-12-27T15:50:20.675Z,54.95
2022-12-27T15:55:40.703Z,47.35
2022-12-27T16:00:44.921Z,51.10
2022-12-27T16:05:53.995Z,59.40
2022-12-27T16:10:57.128Z,44.43
2022-12-27T16:16:00.685Z,51.83
2022-12-27T16:21:22.940Z,62.53
2022-12-27T16:26:31.114Z,78.10
2022-12-27T16:31:41.842Z,85.78
2022-12-27T16:36:49.004Z,65.85
2022-12-27T16:41:57.186Z,94.63
2022-12-27T16:47:11.192Z,73.90
2022-12-27T16:52:13.369Z,79.75
2022-12-27T16:57:24.398Z,78.43
2022-12-27T17:02:40.524Z,88.32
2022-12-27T17:07:51.725Z,78.25
2022-12-27T17:13:14.895Z,69.85
2022-12-27T17:18:31.400Z,80.60
2022-12-27T17:23:41.078Z,77.05
2022-12-27T17:29:06.817Z,77.45
2022-12-27T17:34:11.608Z,65.10
2022-12-27T17:39:25.812Z,74.50
2022-12-27T17:44:52.001Z,72.57
2022-12-27T17:49:58.204Z,77.72
2022-12-27T17:55:36.177Z,82.95
2022-12-27T18:26:39.303Z,78.30
2022-12-27T18:31:55.354Z,85.63
2022-12-27T18:37:05.230Z,75.75
2022-12-27T18:42:31.577Z,111.30
2022-12-27T18:47:40.671Z,88.93
2022-12-27T18:52:46.293Z,96.57
2022-12-27T18:58:20.183Z,124.30
2022-12-27T19:03:23.261Z,119.20
2022-12-27T19:08:29.246Z,129.43
2022-12-27T19:13:37.504Z,158.75
2022-12-27T19:18:39.784Z,162.75
2022-12-27T19:23:51.752Z,149.55
2022-12-27T19:29:08.696Z,161.23
2022-12-27T19:34:17.189Z,133.23
2022-12-27T19:39:26.077Z,125.05
2022-12-27T19:44:28.443Z,125.18
2022-12-27T19:49:45.872Z,144.20
2022-12-27T19:54:50.200Z,115.72
2022-12-27T19:59:52.324Z,118.35
2022-12-27T20:04:54.525Z,97.55
2022-12-27T20:09:56.797Z,86.70
2022-12-27T20:14:59.022Z,79.43
2022-12-27T20:20:01.293Z,73.32
2022-12-27T20:25:03.507Z,88.43
2022-12-27T20:30:06.353Z,68.65
2022-12-27T20:35:10.584Z,72.38
2022-12-27T20:40:12.964Z,74.50
2022-12-27T20:45:25.770Z,78.30
2022-12-27T20:50:27.983Z,69.95
2022-12-27T20:55:31.760Z,80.72
2022-12-27T21:00:33.994Z,63.83
2022-12-27T21:05:37.204Z,89.65
2022-12-27T21:10:39.375Z,76.97
2022-12-27T21:15:46.289Z,81.38
2022-12-27T21:20:48.409Z,79.20
2022-12-27T21:25:50.593Z,80.63
2022-12-27T21:31:02.777Z,80.65
2022-12-27T21:36:08.289Z,71.88
2022-12-27T21:41:31.104Z,86.00
2022-12-27T21:46:38.698Z,64.20
2022-12-27T21:51:42.523Z,67.63
2022-12-27T21:56:44.731Z,64.70
2022-12-27T22:01:52.864Z,73.55
2022-12-27T22:06:55.146Z,68.60
2022-12-27T22:11:58.843Z,66.88
2022-12-27T22:17:02.527Z,74.43
2022-12-27T22:22:04.754Z,71.68
2022-12-27T22:27:06.942Z,57.10
2022-12-27T22:32:09.159Z,75.78
2022-12-27T22:37:11.286Z,71.63
2022-12-27T22:42:13.446Z,65.38
2022-12-27T22:47:26.150Z,60.70
2022-12-27T22:52:29.480Z,61.65
2022-12-27T22:57:31.665Z,67.95
2022-12-27T23:02:35.357Z,68.95
2022-12-27T23:08:06.091Z,61.63
2022-12-27T23:12:59.844Z,86.47
2022-12-27T23:18:02.019Z,82.95
2022-12-27T23:23:04.172Z,78.60
2022-12-27T23:28:06.289Z,105.55
2022-12-27T23:33:12.173Z,91.20
2022-12-27T23:38:14.443Z,80.47
2022-12-27T23:43:50.374Z,69.00
2022-12-27T23:48:39.040Z,65.93
2022-12-27T23:53:42.074Z,68.43
2022-12-27T23:58:50.771Z,53.17
